Time;durP1;ratioP1;P1;durP2;ratioP2;P2;SDS_P1;SDS_P2;PMS_P1;PMS_P2;Temp;Humidity;BMP_temperature;BMP_pressure;BME280_temperature;BME280_humidity;BME280_pressure;Samples;Min_cycle;Max_cycle;Signal;HPM_P1;HPM_P2
2022/03/04 00:02:01;;;;;;;15.20;10.67;;;;;;;;;;5053900;28;20426;-73
2022/03/04 00:04:27;;;;;;;19.53;10.80;;;;;;;;;;5053968;28;20411;-74
2022/03/04 00:06:56;;;;;;;20.47;11.20;;;;;;;;;;5053656;28;20816;-74
2022/03/04 00:09:22;;;;;;;21.30;11.50;;;;;;;;;;5052388;28;20417;-74
2022/03/04 00:11:49;;;;;;;21.63;11.53;;;;;;;;;;5053782;28;20476;-74
2022/03/04 00:14:15;;;;;;;15.30;10.30;;;;;;;;;;5053637;28;20402;-74
2022/03/04 00:16:41;;;;;;;21.27;11.50;;;;;;;;;;5053639;28;20403;-75
2022/03/04 00:19:07;;;;;;;17.13;11.20;;;;;;;;;;5053524;28;20487;-74
2022/03/04 00:21:37;;;;;;;17.30;11.03;;;;;;;;;;5053638;28;20413;-75
2022/03/04 00:24:04;;;;;;;15.80;11.23;;;;;;;;;;5053690;28;20503;-75
2022/03/04 00:26:30;;;;;;;17.03;10.60;;;;;;;;;;5053396;28;20489;-76
2022/03/04 00:28:56;;;;;;;20.73;11.87;;;;;;;;;;5053286;28;20502;-64
2022/03/04 00:31:22;;;;;;;29.70;10.73;;;;;;;;;;5053046;28;20397;-68
2022/03/04 00:33:48;;;;;;;17.20;11.17;;;;;;;;;;5053436;28;20407;-66
2022/03/04 00:36:15;;;;;;;16.07;10.13;;;;;;;;;;5053332;28;20509;-65
2022/03/04 00:38:41;;;;;;;18.20;11.40;;;;;;;;;;5053305;28;20440;-68
2022/03/04 00:41:07;;;;;;;19.13;10.30;;;;;;;;;;5053345;28;20414;-64
2022/03/04 00:43:33;;;;;;;15.30;10.47;;;;;;;;;;5052101;28;20459;-65
2022/03/04 00:45:59;;;;;;;18.60;11.10;;;;;;;;;;5053114;28;20466;-65
2022/03/04 00:48:25;;;;;;;18.87;10.93;;;;;;;;;;5053150;28;20416;-64
2022/03/04 00:50:51;;;;;;;20.43;11.13;;;;;;;;;;5053046;28;20439;-72
2022/03/04 00:53:18;;;;;;;19.73;11.30;;;;;;;;;;5053122;28;20411;-72
2022/03/04 00:55:44;;;;;;;16.53;11.00;;;;;;;;;;5053075;28;20433;-66
2022/03/04 00:58:10;;;;;;;16.13;10.33;;;;;;;;;;5053060;28;20404;-72
2022/03/04 01:00:36;;;;;;;15.50;10.53;;;;;;;;;;5053155;28;20411;-72
2022/03/04 01:03:03;;;;;;;20.53;11.47;;;;;;;;;;5052950;28;20399;-65
2022/03/04 01:05:30;;;;;;;17.70;10.43;;;;;;;;;;5052734;28;20458;-67
2022/03/04 01:07:56;;;;;;;18.33;11.00;;;;;;;;;;5052968;28;20506;-69
2022/03/04 01:10:22;;;;;;;19.20;10.93;;;;;;;;;;5051524;28;20776;-72
2022/03/04 01:12:48;;;;;;;26.77;11.73;;;;;;;;;;5053050;28;20413;-70
2022/03/04 01:15:15;;;;;;;17.97;10.07;;;;;;;;;;5052975;28;20486;-67
2022/03/04 01:17:41;;;;;;;17.87;11.53;;;;;;;;;;5052932;28;20415;-64
2022/03/04 01:20:07;;;;;;;19.40;11.53;;;;;;;;;;5051772;28;20490;-68
2022/03/04 01:22:33;;;;;;;19.50;11.40;;;;;;;;;;5052887;28;20905;-70
2022/03/04 01:24:59;;;;;;;18.70;10.57;;;;;;;;;;5052884;28;20409;-67
2022/03/04 01:27:25;;;;;;;18.00;11.57;;;;;;;;;;5052307;28;20482;-64
2022/03/04 01:29:51;;;;;;;20.77;11.50;;;;;;;;;;5052853;28;20464;-67
2022/03/04 01:32:17;;;;;;;16.37;10.57;;;;;;;;;;5051530;28;20423;-66
2022/03/04 01:34:43;;;;;;;16.87;10.73;;;;;;;;;;5052681;28;20411;-65
2022/03/04 01:37:10;;;;;;;19.77;12.17;;;;;;;;;;5052711;28;20415;-63
2022/03/04 01:39:36;;;;;;;23.00;10.50;;;;;;;;;;5052677;28;20497;-63
2022/03/04 01:42:02;;;;;;;18.10;9.67;;;;;;;;;;5052701;28;20411;-63
2022/03/04 01:44:28;;;;;;;19.33;10.67;;;;;;;;;;5054865;28;20421;-64
2022/03/04 01:46:54;;;;;;;17.63;10.40;;;;;;;;;;5056295;28;20553;-64
2022/03/04 01:49:20;;;;;;;19.20;10.13;;;;;;;;;;5056399;28;20414;-71
2022/03/04 01:51:46;;;;;;;19.20;10.67;;;;;;;;;;5056416;28;20464;-73
2022/03/04 01:54:13;;;;;;;17.60;10.67;;;;;;;;;;5056304;28;20391;-69
2022/03/04 01:56:40;;;;;;;20.37;10.77;;;;;;;;;;5056366;28;20909;-73
2022/03/04 01:59:06;;;;;;;19.87;11.63;;;;;;;;;;5056258;28;20724;-73
2022/03/04 02:01:32;;;;;;;17.43;11.40;;;;;;;;;;5056264;28;20463;-74
2022/03/04 02:03:59;;;;;;;20.77;11.03;;;;;;;;;;5056296;28;20877;-73
2022/03/04 02:06:25;;;;;;;18.43;10.63;;;;;;;;;;5055880;28;20564;-73
2022/03/04 02:08:51;;;;;;;19.80;11.30;;;;;;;;;;5054634;28;20468;-73
2022/03/04 02:11:17;;;;;;;18.83;11.10;;;;;;;;;;5055958;28;20442;-66
2022/03/04 02:13:43;;;;;;;14.37;9.80;;;;;;;;;;5056029;28;20411;-71
2022/03/04 02:16:34;;;;;;;20.37;12.00;;;;;;;;;;5056002;28;20419;-71
2022/03/04 02:19:01;;;;;;;18.63;10.77;;;;;;;;;;5055849;28;20747;-72
2022/03/04 02:21:27;;;;;;;19.60;11.10;;;;;;;;;;5055866;28;20397;-74
2022/03/04 02:23:53;;;;;;;20.40;11.73;;;;;;;;;;5055851;28;20419;-73
2022/03/04 02:26:19;;;;;;;15.97;10.83;;;;;;;;;;5055650;28;20469;-74
2022/03/04 02:28:45;;;;;;;13.70;10.20;;;;;;;;;;5054267;28;20812;-74
2022/03/04 02:31:18;;;;;;;18.47;11.10;;;;;;;;;;5055714;28;20436;-73
2022/03/04 02:33:45;;;;;;;15.90;10.97;;;;;;;;;;5055634;28;20419;-75
2022/03/04 02:36:12;;;;;;;21.33;11.50;;;;;;;;;;5055640;28;20407;-65
2022/03/04 02:38:38;;;;;;;18.67;11.73;;;;;;;;;;5055568;28;20413;-64
2022/03/04 02:41:04;;;;;;;20.60;10.83;;;;;;;;;;5055384;28;20808;-64
2022/03/04 02:43:30;;;;;;;16.70;10.63;;;;;;;;;;5055341;28;20392;-67
2022/03/04 02:45:56;;;;;;;17.63;10.83;;;;;;;;;;5055295;28;20463;-64
2022/03/04 02:48:22;;;;;;;19.27;11.17;;;;;;;;;;5055212;28;20416;-68
2022/03/04 02:50:48;;;;;;;15.73;9.87;;;;;;;;;;5055248;28;20413;-73
2022/03/04 02:53:14;;;;;;;16.53;10.67;;;;;;;;;;5055218;28;20905;-75
2022/03/04 02:55:40;;;;;;;18.47;9.80;;;;;;;;;;5054796;28;20436;-75
2022/03/04 02:58:06;;;;;;;18.80;10.30;;;;;;;;;;5055026;28;20403;-75
2022/03/04 03:00:34;;;;;;;22.20;10.97;;;;;;;;;;5053808;28;20501;-75
2022/03/04 03:03:00;;;;;;;16.33;9.93;;;;;;;;;;5055088;28;20415;-75
2022/03/04 03:05:26;;;;;;;19.23;10.80;;;;;;;;;;5054773;28;20463;-66
2022/03/04 03:07:52;;;;;;;15.20;10.57;;;;;;;;;;5054902;28;20886;-74
2022/03/04 03:10:18;;;;;;;17.77;10.83;;;;;;;;;;5054838;28;20414;-72
2022/03/04 03:12:44;;;;;;;17.37;9.43;;;;;;;;;;5053599;28;20508;-70
2022/03/04 03:15:11;;;;;;;18.43;10.13;;;;;;;;;;5054728;28;20490;-71
2022/03/04 03:17:37;;;;;;;16.37;10.40;;;;;;;;;;5054698;28;20464;-70
2022/03/04 03:20:07;;;;;;;17.83;11.30;;;;;;;;;;5054710;28;20768;-65
2022/03/04 03:22:33;;;;;;;19.80;11.33;;;;;;;;;;5054656;28;20421;-63
2022/03/04 03:24:59;;;;;;;20.10;11.10;;;;;;;;;;5054802;28;20413;-63
2022/03/04 03:27:25;;;;;;;18.20;10.97;;;;;;;;;;5054421;28;20908;-66
2022/03/04 03:29:51;;;;;;;19.33;10.43;;;;;;;;;;5054491;28;20548;-69
2022/03/04 03:32:17;;;;;;;19.00;10.57;;;;;;;;;;5053276;28;20443;-66
2022/03/04 03:34:43;;;;;;;17.13;10.73;;;;;;;;;;5054599;28;20418;-69
2022/03/04 03:37:10;;;;;;;21.67;11.50;;;;;;;;;;5054384;28;20448;-63
2022/03/04 03:39:36;;;;;;;18.57;10.53;;;;;;;;;;5054293;28;20408;-65
2022/03/04 03:42:02;;;;;;;18.60;12.80;;;;;;;;;;5054429;28;20909;-63
2022/03/04 03:44:29;;;;;;;14.90;9.93;;;;;;;;;;5054523;28;20406;-72
2022/03/04 03:46:55;;;;;;;15.40;9.93;;;;;;;;;;5054014;28;20817;-70
2022/03/04 03:49:21;;;;;;;19.50;10.93;;;;;;;;;;5054238;28;20418;-72
2022/03/04 03:51:47;;;;;;;20.77;10.57;;;;;;;;;;5054129;28;20958;-72
2022/03/04 03:54:14;;;;;;;17.50;11.00;;;;;;;;;;5054203;28;20482;-69
2022/03/04 03:56:40;;;;;;;16.43;11.50;;;;;;;;;;5053945;28;20423;-67
2022/03/04 03:59:06;;;;;;;17.53;11.70;;;;;;;;;;5053768;28;20910;-70
2022/03/04 04:01:32;;;;;;;19.20;11.23;;;;;;;;;;5053870;28;20973;-68
2022/03/04 04:03:58;;;;;;;19.57;11.77;;;;;;;;;;5052667;28;20817;-67
2022/03/04 04:06:24;;;;;;;19.40;10.80;;;;;;;;;;5052934;28;20481;-67
2022/03/04 04:08:50;;;;;;;18.07;11.27;;;;;;;;;;5053719;28;20423;-71
2022/03/04 04:11:16;;;;;;;18.57;11.57;;;;;;;;;;5053779;28;20419;-73
2022/03/04 04:13:42;;;;;;;17.73;11.43;;;;;;;;;;5053818;28;20428;-69
2022/03/04 04:16:08;;;;;;;22.63;12.33;;;;;;;;;;5053622;28;20910;-74
2022/03/04 04:18:35;;;;;;;20.42;10.35;;;;;;;;;;5053524;28;20422;-70
2022/03/04 04:21:01;;;;;;;19.90;11.10;;;;;;;;;;5052285;28;20204;-65
2022/03/04 04:23:28;;;;;;;19.73;12.20;;;;;;;;;;5053558;28;20447;-72
2022/03/04 04:25:54;;;;;;;19.80;11.20;;;;;;;;;;5053385;28;20466;-65
2022/03/04 04:28:21;;;;;;;15.90;10.70;;;;;;;;;;5053450;28;20425;-68
2022/03/04 04:30:47;;;;;;;21.23;11.23;;;;;;;;;;5053347;28;20459;-68
2022/03/04 04:33:13;;;;;;;19.77;10.77;;;;;;;;;;5053449;28;20810;-73
2022/03/04 04:35:40;;;;;;;21.80;11.40;;;;;;;;;;5053329;28;20480;-63
2022/03/04 04:38:06;;;;;;;16.43;10.03;;;;;;;;;;5053381;28;20399;-64
2022/03/04 04:40:32;;;;;;;20.70;11.90;;;;;;;;;;5053443;28;20423;-76
2022/03/04 04:42:58;;;;;;;18.33;11.47;;;;;;;;;;5053302;28;20387;-75
2022/03/04 04:45:24;;;;;;;18.03;11.13;;;;;;;;;;5053109;28;20429;-74
2022/03/04 04:47:50;;;;;;;15.90;9.73;;;;;;;;;;5053039;28;20407;-75
2022/03/04 04:50:16;;;;;;;17.60;11.40;;;;;;;;;;5053173;28;20531;-75
2022/03/04 04:52:42;;;;;;;19.00;11.40;;;;;;;;;;5053107;28;20481;-75
2022/03/04 04:55:08;;;;;;;20.17;12.20;;;;;;;;;;5053027;28;20419;-75
2022/03/04 04:57:34;;;;;;;20.20;10.73;;;;;;;;;;5053103;28;20411;-74
2022/03/04 05:00:00;;;;;;;20.33;11.90;;;;;;;;;;5052969;28;20451;-75
2022/03/04 05:02:26;;;;;;;17.70;10.70;;;;;;;;;;5051887;28;20830;-75
2022/03/04 05:04:52;;;;;;;18.63;10.93;;;;;;;;;;5052818;28;20936;-74
2022/03/04 05:07:18;;;;;;;25.60;11.93;;;;;;;;;;5052933;28;20467;-75
2022/03/04 05:09:44;;;;;;;19.30;11.50;;;;;;;;;;5052930;28;20458;-75
2022/03/04 05:12:10;;;;;;;16.80;10.30;;;;;;;;;;5051730;28;20428;-76
2022/03/04 05:14:36;;;;;;;22.57;11.23;;;;;;;;;;5052989;28;20404;-76
2022/03/04 05:17:02;;;;;;;21.53;11.87;;;;;;;;;;5053010;28;20739;-75
2022/03/04 05:19:28;;;;;;;22.53;12.00;;;;;;;;;;5056749;28;20407;-75
2022/03/04 05:21:54;;;;;;;20.17;12.20;;;;;;;;;;5057107;28;20416;-76
2022/03/04 05:24:20;;;;;;;19.93;11.20;;;;;;;;;;5056852;28;20435;-75
2022/03/04 05:26:46;;;;;;;19.10;10.60;;;;;;;;;;5056769;28;20515;-75
2022/03/04 05:29:13;;;;;;;18.87;11.20;;;;;;;;;;5056870;28;20408;-76
2022/03/04 05:31:40;;;;;;;22.77;11.87;;;;;;;;;;5055555;28;20922;-74
2022/03/04 05:34:06;;;;;;;25.93;11.63;;;;;;;;;;5056633;28;20485;-76
2022/03/04 05:36:33;;;;;;;17.97;11.00;;;;;;;;;;5056751;28;20419;-74
2022/03/04 05:38:59;;;;;;;19.00;11.93;;;;;;;;;;5055475;28;20741;-72
2022/03/04 05:41:25;;;;;;;19.40;11.73;;;;;;;;;;5056539;28;20434;-64
2022/03/04 05:43:51;;;;;;;17.10;10.57;;;;;;;;;;5055252;28;20447;-64
2022/03/04 05:46:18;;;;;;;21.23;11.80;;;;;;;;;;5056473;28;20541;-63
2022/03/04 05:48:44;;;;;;;17.40;10.73;;;;;;;;;;5056328;28;20411;-68
2022/03/04 05:51:10;;;;;;;19.93;12.47;;;;;;;;;;5055139;28;20436;-68
2022/03/04 05:53:36;;;;;;;25.20;11.47;;;;;;;;;;5056385;28;20418;-65
2022/03/04 05:56:03;;;;;;;19.53;11.53;;;;;;;;;;5056179;28;20482;-64
2022/03/04 05:58:29;;;;;;;19.47;11.37;;;;;;;;;;5056100;28;20411;-67
2022/03/04 06:00:55;;;;;;;19.60;11.07;;;;;;;;;;5056165;28;20423;-66
2022/03/04 06:03:21;;;;;;;16.77;11.27;;;;;;;;;;5056202;28;20758;-67
2022/03/04 06:05:47;;;;;;;19.80;11.43;;;;;;;;;;5055918;28;20483;-65
2022/03/04 06:08:14;;;;;;;22.17;12.10;;;;;;;;;;5055890;28;20507;-64
2022/03/04 06:10:40;;;;;;;20.17;12.13;;;;;;;;;;5055967;28;20418;-66
2022/03/04 06:13:07;;;;;;;21.47;13.63;;;;;;;;;;5055992;28;20431;-66
2022/03/04 06:15:33;;;;;;;17.53;10.57;;;;;;;;;;5056033;28;20421;-70
2022/03/04 06:17:59;;;;;;;20.73;11.87;;;;;;;;;;5055700;28;20420;-64
2022/03/04 06:20:25;;;;;;;18.83;12.00;;;;;;;;;;5055842;28;20405;-63
2022/03/04 06:22:51;;;;;;;19.20;12.23;;;;;;;;;;5055936;28;20408;-64
2022/03/04 06:25:17;;;;;;;22.97;12.63;;;;;;;;;;5055525;28;20418;-66
2022/03/04 06:27:57;;;;;;;19.90;11.67;;;;;;;;;;5055542;28;20839;-66
2022/03/04 06:30:23;;;;;;;21.17;11.87;;;;;;;;;;5054973;28;20491;-64
2022/03/04 06:32:50;;;;;;;22.47;13.23;;;;;;;;;;5055713;28;20426;-67
2022/03/04 06:35:16;;;;;;;20.53;12.00;;;;;;;;;;5055616;28;20410;-76
2022/03/04 06:37:42;;;;;;;17.67;12.17;;;;;;;;;;5055470;28;20418;-74
2022/03/04 06:40:08;;;;;;;26.93;11.30;;;;;;;;;;5055497;28;20420;-72
2022/03/04 06:42:35;;;;;;;23.87;13.43;;;;;;;;;;5055351;28;20473;-74
2022/03/04 06:45:01;;;;;;;22.20;12.00;;;;;;;;;;5055297;28;20459;-68
2022/03/04 06:47:27;;;;;;;21.23;12.10;;;;;;;;;;5055129;28;20486;-73
2022/03/04 06:49:53;;;;;;;25.63;12.30;;;;;;;;;;5055275;28;20420;-76
2022/03/04 06:52:21;;;;;;;22.23;12.70;;;;;;;;;;5055359;28;20439;-73
2022/03/04 06:54:47;;;;;;;21.27;12.30;;;;;;;;;;5055164;28;20417;-69
2022/03/04 06:57:14;;;;;;;25.03;12.37;;;;;;;;;;5055046;28;20526;-74
2022/03/04 06:59:40;;;;;;;25.60;12.23;;;;;;;;;;5053820;28;20407;-75
2022/03/04 07:02:06;;;;;;;24.40;13.60;;;;;;;;;;5055189;28;20555;-73
2022/03/04 07:04:32;;;;;;;19.00;12.50;;;;;;;;;;5055117;28;20409;-74
2022/03/04 07:06:58;;;;;;;21.07;11.97;;;;;;;;;;5054623;28;20849;-76
2022/03/04 07:09:24;;;;;;;19.17;11.80;;;;;;;;;;5054942;28;20820;-74
2022/03/04 07:11:51;;;;;;;21.70;14.50;;;;;;;;;;5055048;28;20907;-74
2022/03/04 07:14:18;;;;;;;20.80;13.30;;;;;;;;;;5054745;28;20773;-75
2022/03/04 07:16:44;;;;;;;24.30;12.37;;;;;;;;;;5054830;28;20465;-72
2022/03/04 07:19:10;;;;;;;23.90;12.43;;;;;;;;;;5054703;28;20486;-74
2022/03/04 07:21:36;;;;;;;20.07;12.27;;;;;;;;;;5054780;28;20410;-68
2022/03/04 07:24:02;;;;;;;23.00;13.30;;;;;;;;;;5053417;28;20483;-69
2022/03/04 07:26:28;;;;;;;23.70;13.47;;;;;;;;;;5054534;28;20477;-72
2022/03/04 07:28:54;;;;;;;23.63;13.87;;;;;;;;;;5054573;28;20413;-67
2022/03/04 07:31:20;;;;;;;22.50;13.20;;;;;;;;;;5054973;28;20395;-71
2022/03/04 07:33:46;;;;;;;21.47;13.30;;;;;;;;;;5055933;28;20476;-75
2022/03/04 07:36:12;;;;;;;24.40;13.03;;;;;;;;;;5053275;28;20407;-73
2022/03/04 07:38:38;;;;;;;22.20;12.67;;;;;;;;;;5054467;28;20504;-75
2022/03/04 07:41:04;;;;;;;23.73;13.47;;;;;;;;;;5053377;28;20414;-68
2022/03/04 07:43:30;;;;;;;21.10;12.90;;;;;;;;;;5054358;28;20855;-76
2022/03/04 07:45:56;;;;;;;22.73;13.73;;;;;;;;;;5054113;28;20501;-72
2022/03/04 07:48:22;;;;;;;22.73;13.93;;;;;;;;;;5054129;28;20414;-75
2022/03/04 07:50:48;;;;;;;24.77;14.17;;;;;;;;;;5054198;28;20411;-74
2022/03/04 07:53:15;;;;;;;24.70;14.70;;;;;;;;;;5054236;28;20436;-75
2022/03/04 07:55:41;;;;;;;24.53;14.40;;;;;;;;;;5052745;28;20450;-70
2022/03/04 07:58:07;;;;;;;21.30;13.70;;;;;;;;;;5053970;28;20407;-73
2022/03/04 08:00:33;;;;;;;22.70;14.07;;;;;;;;;;5053906;28;20528;-74
2022/03/04 08:03:07;;;;;;;25.87;15.03;;;;;;;;;;5070715;28;21056;-73
2022/03/04 08:05:34;;;;;;;23.97;14.10;;;;;;;;;;5070509;28;20407;-73
2022/03/04 08:08:00;;;;;;;21.30;13.47;;;;;;;;;;5070280;28;20394;-74
2022/03/04 08:10:26;;;;;;;27.37;15.47;;;;;;;;;;5070506;28;20393;-72
2022/03/04 08:12:52;;;;;;;23.33;13.60;;;;;;;;;;5070384;28;20421;-73
2022/03/04 08:15:18;;;;;;;27.40;14.23;;;;;;;;;;5070288;28;20411;-71
2022/03/04 08:17:45;;;;;;;28.27;15.77;;;;;;;;;;5070251;28;20933;-71
2022/03/04 08:20:11;;;;;;;25.87;15.97;;;;;;;;;;5070278;28;20740;-68
2022/03/04 08:22:38;;;;;;;28.00;14.97;;;;;;;;;;5070179;28;20469;-69
2022/03/04 08:25:05;;;;;;;29.80;16.07;;;;;;;;;;5070248;28;20397;-72
2022/03/04 08:27:31;;;;;;;24.80;14.10;;;;;;;;;;5071289;28;20406;-68
2022/03/04 08:29:57;;;;;;;26.13;14.87;;;;;;;;;;5070270;28;20410;-74
2022/03/04 08:32:23;;;;;;;27.07;15.40;;;;;;;;;;5070086;28;20410;-73
2022/03/04 08:34:49;;;;;;;34.20;17.10;;;;;;;;;;5069964;28;20404;-75
2022/03/04 08:37:16;;;;;;;26.50;16.20;;;;;;;;;;5068802;28;20854;-75
2022/03/04 08:39:42;;;;;;;24.67;14.10;;;;;;;;;;5069925;28;20513;-69
2022/03/04 08:42:08;;;;;;;24.73;14.90;;;;;;;;;;5069743;28;20549;-75
2022/03/04 08:44:34;;;;;;;35.17;17.20;;;;;;;;;;5068519;28;20425;-74
2022/03/04 08:47:00;;;;;;;25.77;14.90;;;;;;;;;;5069585;28;20417;-67
2022/03/04 08:49:26;;;;;;;26.10;16.00;;;;;;;;;;5069508;28;20496;-70
2022/03/04 08:51:52;;;;;;;27.03;16.60;;;;;;;;;;5069533;28;20421;-74
2022/03/04 08:54:18;;;;;;;32.23;17.10;;;;;;;;;;5069428;28;20537;-71
2022/03/04 08:56:44;;;;;;;31.03;15.80;;;;;;;;;;5069305;28;20828;-74
2022/03/04 08:59:10;;;;;;;34.97;18.00;;;;;;;;;;5069429;28;20419;-74
2022/03/04 09:01:37;;;;;;;29.17;17.07;;;;;;;;;;5068931;28;20878;-73
2022/03/04 09:04:03;;;;;;;29.30;15.60;;;;;;;;;;5069101;28;20415;-73
2022/03/04 09:06:29;;;;;;;29.80;16.70;;;;;;;;;;5069303;28;20442;-75
2022/03/04 09:08:55;;;;;;;31.57;17.60;;;;;;;;;;5069006;28;20422;-62
2022/03/04 09:11:22;;;;;;;29.27;17.07;;;;;;;;;;5069179;28;20424;-66
2022/03/04 09:13:48;;;;;;;29.07;16.70;;;;;;;;;;5059607;28;20968;-74
2022/03/04 09:16:14;;;;;;;26.67;16.10;;;;;;;;;;5055876;28;20420;-76
2022/03/04 09:18:40;;;;;;;28.50;14.87;;;;;;;;;;5055888;28;20410;-73
2022/03/04 09:21:07;;;;;;;34.50;17.23;;;;;;;;;;5056789;28;20464;-67
2022/03/04 09:23:34;;;;;;;28.13;16.40;;;;;;;;;;5056128;28;20449;-70
2022/03/04 09:26:00;;;;;;;29.20;16.60;;;;;;;;;;5055681;28;20475;-73
2022/03/04 09:28:26;;;;;;;31.30;17.10;;;;;;;;;;5055476;28;20414;-73
2022/03/04 09:30:52;;;;;;;26.47;15.90;;;;;;;;;;5055566;28;20394;-68
2022/03/04 09:33:18;;;;;;;28.63;16.07;;;;;;;;;;5055451;28;20441;-71
2022/03/04 09:35:44;;;;;;;28.97;16.27;;;;;;;;;;5055652;28;20463;-73
2022/03/04 09:38:10;;;;;;;26.43;15.63;;;;;;;;;;5055668;28;20423;-72
2022/03/04 09:40:36;;;;;;;28.50;16.10;;;;;;;;;;5055475;28;20419;-73
2022/03/04 09:43:05;;;;;;;32.77;16.37;;;;;;;;;;5055354;28;20477;-71
2022/03/04 09:45:31;;;;;;;31.60;16.37;;;;;;;;;;5055388;28;20407;-68
2022/03/04 09:47:57;;;;;;;28.03;15.73;;;;;;;;;;5055293;28;20426;-76
2022/03/04 09:50:24;;;;;;;25.47;14.90;;;;;;;;;;5055258;28;20421;-74
2022/03/04 09:52:50;;;;;;;30.80;16.57;;;;;;;;;;5055198;28;20436;-74
2022/03/04 09:55:16;;;;;;;27.67;16.27;;;;;;;;;;5054979;28;20993;-74
2022/03/04 09:57:43;;;;;;;30.13;16.83;;;;;;;;;;5055042;28;20495;-76
2022/03/04 10:00:11;;;;;;;35.03;17.27;;;;;;;;;;5054940;28;20430;-70
2022/03/04 10:02:37;;;;;;;32.00;16.73;;;;;;;;;;5054816;28;20489;-73
2022/03/04 10:05:04;;;;;;;25.63;15.07;;;;;;;;;;5055073;28;20887;-67
2022/03/04 10:07:43;;;;;;;31.33;16.83;;;;;;;;;;5054858;28;20902;-65
2022/03/04 10:10:10;;;;;;;29.37;14.97;;;;;;;;;;5054844;28;20403;-74
2022/03/04 10:12:46;;;;;;;28.20;15.87;;;;;;;;;;5054777;28;20902;-71
2022/03/04 10:15:12;;;;;;;28.13;16.00;;;;;;;;;;5054794;28;20421;-68
2022/03/04 10:17:38;;;;;;;28.50;16.60;;;;;;;;;;5054617;28;20498;-66
2022/03/04 10:20:12;;;;;;;33.40;17.70;;;;;;;;;;5053255;28;20517;-76
2022/03/04 10:22:42;;;;;;;27.67;16.87;;;;;;;;;;5053339;28;20536;-75
2022/03/04 10:25:22;;;;;;;26.40;16.93;;;;;;;;;;5053422;28;20419;-76
2022/03/04 10:27:49;;;;;;;33.53;15.30;;;;;;;;;;5054457;28;20548;-73
2022/03/04 10:30:16;;;;;;;32.70;16.10;;;;;;;;;;5054511;28;20499;-74
2022/03/04 10:32:42;;;;;;;33.60;18.20;;;;;;;;;;5054513;28;20420;-76
2022/03/04 10:35:09;;;;;;;30.27;17.53;;;;;;;;;;5054354;28;20422;-75
2022/03/04 10:37:54;;;;;;;29.00;17.40;;;;;;;;;;5054395;28;20403;-75
2022/03/04 10:40:20;;;;;;;34.17;18.23;;;;;;;;;;5054201;28;20409;-73
2022/03/04 10:42:58;;;;;;;33.23;18.57;;;;;;;;;;5054441;28;20485;-72
2022/03/04 10:45:25;;;;;;;34.27;17.60;;;;;;;;;;5054293;28;20457;-69
2022/03/04 10:47:52;;;;;;;26.37;16.40;;;;;;;;;;5052881;28;20422;-73
2022/03/04 10:50:32;;;;;;;28.33;17.10;;;;;;;;;;5054271;28;20406;-74
2022/03/04 10:53:14;;;;;;;31.00;17.60;;;;;;;;;;5054188;28;20753;-75
2022/03/04 10:55:57;;;;;;;34.40;17.10;;;;;;;;;;5054118;28;20473;-76
2022/03/04 10:58:24;;;;;;;29.10;17.13;;;;;;;;;;5054076;28;20407;-74
2022/03/04 11:00:50;;;;;;;25.20;15.30;;;;;;;;;;5053651;28;20431;-78
2022/03/04 11:03:23;;;;;;;33.60;18.27;;;;;;;;;;5054012;28;20456;-66
2022/03/04 11:05:49;;;;;;;34.87;16.97;;;;;;;;;;5054009;28;20489;-68
2022/03/04 11:08:16;;;;;;;31.03;17.57;;;;;;;;;;5053811;28;20411;-67
2022/03/04 11:10:42;;;;;;;30.53;18.10;;;;;;;;;;5053775;28;20429;-73
2022/03/04 11:13:09;;;;;;;29.20;17.23;;;;;;;;;;5052603;28;20413;-64
2022/03/04 11:15:36;;;;;;;28.93;15.90;;;;;;;;;;5053770;28;20756;-64
2022/03/04 11:18:04;;;;;;;29.43;16.13;;;;;;;;;;5053608;28;20412;-69
2022/03/04 11:20:30;;;;;;;28.00;17.27;;;;;;;;;;5053653;28;20513;-65
2022/03/04 11:22:56;;;;;;;27.87;15.83;;;;;;;;;;5053513;28;20481;-77
2022/03/04 11:25:23;;;;;;;28.37;17.37;;;;;;;;;;5053508;28;20418;-78
2022/03/04 11:27:50;;;;;;;30.93;16.97;;;;;;;;;;5053442;28;20540;-69
2022/03/04 11:30:28;;;;;;;30.07;18.07;;;;;;;;;;5053448;28;20399;-64
2022/03/04 11:33:04;;;;;;;28.27;16.97;;;;;;;;;;5053447;28;20458;-68
2022/03/04 11:35:42;;;;;;;28.23;16.10;;;;;;;;;;5053382;28;20417;-70
2022/03/04 11:38:08;;;;;;;29.00;16.87;;;;;;;;;;5053202;28;20413;-65
2022/03/04 11:40:35;;;;;;;27.10;16.10;;;;;;;;;;5053391;28;20535;-69
2022/03/04 11:43:02;;;;;;;30.83;16.43;;;;;;;;;;5053229;28;20988;-64
2022/03/04 11:45:37;;;;;;;26.53;15.80;;;;;;;;;;5053012;28;20873;-65
2022/03/04 11:48:05;;;;;;;28.60;16.53;;;;;;;;;;5053109;28;20899;-63
2022/03/04 11:50:52;;;;;;;31.43;16.60;;;;;;;;;;5053173;28;20429;-66
2022/03/04 11:53:19;;;;;;;29.03;17.67;;;;;;;;;;5053138;28;20922;-66
2022/03/04 11:56:03;;;;;;;24.27;14.97;;;;;;;;;;5052732;28;20533;-75
2022/03/04 11:58:29;;;;;;;26.07;15.13;;;;;;;;;;5052882;28;20440;-64
2022/03/04 12:01:15;;;;;;;27.00;15.90;;;;;;;;;;5052591;28;20499;-71
2022/03/04 12:04:01;;;;;;;24.40;15.60;;;;;;;;;;5052960;28;20465;-68
2022/03/04 12:06:27;;;;;;;24.67;15.40;;;;;;;;;;5052914;28;20442;-69
2022/03/04 12:08:55;;;;;;;29.13;15.00;;;;;;;;;;5051513;28;20919;-67
2022/03/04 12:11:24;;;;;;;27.73;15.07;;;;;;;;;;5052920;28;20423;-63
2022/03/04 12:14:07;;;;;;;32.13;16.37;;;;;;;;;;5052931;28;20414;-66
2022/03/04 12:16:59;;;;;;;25.43;14.77;;;;;;;;;;5052952;28;20516;-71
2022/03/04 12:19:34;;;;;;;24.63;13.10;;;;;;;;;;5052662;28;20413;-63
2022/03/04 12:22:01;;;;;;;24.37;14.50;;;;;;;;;;5051617;28;20514;-76
2022/03/04 12:24:30;;;;;;;24.10;14.23;;;;;;;;;;5052841;28;20403;-71
2022/03/04 12:26:56;;;;;;;23.10;14.50;;;;;;;;;;5052680;28;20430;-76
2022/03/04 12:29:25;;;;;;;25.90;14.27;;;;;;;;;;5052816;28;20404;-71
2022/03/04 12:31:51;;;;;;;24.53;13.63;;;;;;;;;;5053120;28;20506;-75
2022/03/04 12:34:22;;;;;;;20.40;12.30;;;;;;;;;;5052882;28;20413;-68
2022/03/04 12:36:48;;;;;;;16.77;11.60;;;;;;;;;;5052823;28;20406;-69
2022/03/04 12:39:17;;;;;;;20.17;11.90;;;;;;;;;;5051569;28;20401;-70
2022/03/04 12:41:43;;;;;;;19.80;13.30;;;;;;;;;;5052807;28;20991;-71
2022/03/04 12:44:09;;;;;;;16.73;10.90;;;;;;;;;;5052711;28;20406;-72
2022/03/04 12:46:36;;;;;;;19.90;11.20;;;;;;;;;;5051444;28;20425;-68
2022/03/04 12:49:03;;;;;;;14.80;10.20;;;;;;;;;;5054978;28;20420;-74
2022/03/04 12:51:31;;;;;;;15.27;10.70;;;;;;;;;;5056481;28;20416;-70
2022/03/04 12:53:59;;;;;;;20.10;11.83;;;;;;;;;;5056399;28;20884;-64
2022/03/04 12:56:25;;;;;;;17.80;11.20;;;;;;;;;;5056356;28;20429;-70
2022/03/04 12:58:52;;;;;;;17.40;11.10;;;;;;;;;;5056308;28;20936;-68
2022/03/04 13:01:19;;;;;;;16.27;10.60;;;;;;;;;;5056061;28;20469;-67
2022/03/04 13:03:49;;;;;;;17.77;12.43;;;;;;;;;;5056293;28;20452;-64
2022/03/04 13:06:16;;;;;;;15.90;10.90;;;;;;;;;;5056222;28;20412;-62
2022/03/04 13:08:45;;;;;;;21.47;12.10;;;;;;;;;;5055872;28;20852;-65
2022/03/04 13:11:21;;;;;;;18.13;11.00;;;;;;;;;;5056054;28;20475;-64
2022/03/04 13:13:48;;;;;;;19.67;11.43;;;;;;;;;;5055973;28;20402;-69
2022/03/04 13:16:18;;;;;;;23.70;12.70;;;;;;;;;;5056036;28;21134;-63
2022/03/04 13:18:44;;;;;;;23.93;13.57;;;;;;;;;;5055986;28;20948;-63
2022/03/04 13:21:10;;;;;;;28.40;14.60;;;;;;;;;;5055890;28;20512;-64
2022/03/04 13:23:36;;;;;;;25.50;14.63;;;;;;;;;;5056012;28;20410;-65
2022/03/04 13:26:09;;;;;;;24.63;13.03;;;;;;;;;;5055765;28;20907;-64
2022/03/04 13:29:11;;;;;;;18.37;11.90;;;;;;;;;;5055851;28;20412;-75
2022/03/04 13:31:37;;;;;;;15.90;9.13;;;;;;;;;;5053629;28;20411;-76
2022/03/04 13:34:05;;;;;;;16.10;9.67;;;;;;;;;;5055300;28;20470;-76
2022/03/04 13:36:38;;;;;;;17.27;11.13;;;;;;;;;;5055595;28;20490;-64
2022/03/04 13:39:08;;;;;;;16.73;10.87;;;;;;;;;;5055590;28;20394;-64
2022/03/04 13:41:36;;;;;;;20.13;11.70;;;;;;;;;;5055431;28;20468;-75
2022/03/04 13:44:06;;;;;;;18.57;10.80;;;;;;;;;;5055394;28;20472;-77
2022/03/04 13:46:32;;;;;;;18.93;11.07;;;;;;;;;;5055363;28;20405;-64
2022/03/04 13:49:00;;;;;;;16.87;10.70;;;;;;;;;;5055379;28;20491;-66
2022/03/04 13:51:26;;;;;;;18.67;11.60;;;;;;;;;;5055311;28;20412;-64
2022/03/04 13:53:56;;;;;;;21.73;12.90;;;;;;;;;;5055314;28;20417;-63
2022/03/04 13:56:24;;;;;;;21.87;12.93;;;;;;;;;;5055175;28;20927;-66
2022/03/04 13:58:59;;;;;;;21.27;13.13;;;;;;;;;;5055034;28;20406;-63
2022/03/04 14:01:28;;;;;;;17.87;12.20;;;;;;;;;;5054972;28;20500;-64
2022/03/04 14:03:54;;;;;;;21.33;12.10;;;;;;;;;;5055222;28;20504;-62
2022/03/04 14:06:24;;;;;;;20.20;12.90;;;;;;;;;;5053872;28;20453;-64
2022/03/04 14:08:50;;;;;;;23.33;12.33;;;;;;;;;;5054738;28;20442;-63
2022/03/04 14:11:16;;;;;;;20.43;12.30;;;;;;;;;;5054855;28;20953;-62
2022/03/04 14:13:42;;;;;;;22.97;13.07;;;;;;;;;;5054887;28;20418;-67
2022/03/04 14:16:09;;;;;;;20.80;11.50;;;;;;;;;;5055047;28;20425;-63
2022/03/04 14:18:36;;;;;;;17.73;11.03;;;;;;;;;;5053789;28;20475;-76
2022/03/04 14:21:03;;;;;;;20.03;11.73;;;;;;;;;;5054656;28;20427;-67